createdAt,value
2022-09-07T00:02:05.336Z,99.05
2022-09-07T00:04:32.146Z,98.67
2022-09-07T00:06:58.982Z,99.15
2022-09-07T00:09:25.725Z,99.18
2022-09-07T00:11:52.467Z,99.28
2022-09-07T00:14:19.245Z,99.23
2022-09-07T00:16:46.085Z,99.92
2022-09-07T00:19:13.322Z,99.50
2022-09-07T00:21:40.203Z,99.00
2022-09-07T00:24:07.007Z,99.18
2022-09-07T00:26:33.766Z,99.53
2022-09-07T00:29:02.238Z,99.07
2022-09-07T00:31:30.575Z,99.49
2022-09-07T00:34:00.665Z,98.95
2022-09-07T00:36:27.842Z,98.89
2022-09-07T00:38:54.868Z,99.21
2022-09-07T00:41:23.233Z,99.20
2022-09-07T00:43:53.285Z,99.06
2022-09-07T00:46:36.830Z,99.41
2022-09-07T00:49:18.168Z,99.24
2022-09-07T00:51:55.020Z,99.12
2022-09-07T00:54:28.067Z,99.45
2022-09-07T00:56:55.728Z,99.17
2022-09-07T00:59:27.182Z,98.81
2022-09-07T01:01:54.311Z,99.22
2022-09-07T01:04:23.050Z,99.04
2022-09-07T01:06:50.192Z,99.30
2022-09-07T01:09:19.908Z,99.40
2022-09-07T01:11:51.039Z,99.10
2022-09-07T01:14:26.348Z,98.92
2022-09-07T01:17:08.130Z,99.50
2022-09-07T01:19:53.155Z,99.36
2022-09-07T01:23:13.859Z,99.38
2022-09-07T01:26:18.147Z,99.40
2022-09-07T01:28:49.545Z,99.29
2022-09-07T01:31:16.135Z,99.27
2022-09-07T01:33:59.766Z,99.34
2022-09-07T01:36:29.008Z,99.52
2022-09-07T01:39:02.605Z,99.65
2022-09-07T01:41:59.155Z,99.47
2022-09-07T01:45:01.132Z,99.50
2022-09-07T01:47:57.063Z,99.05
2022-09-07T01:50:29.892Z,99.45
2022-09-07T01:53:01.547Z,99.40
2022-09-07T01:55:48.682Z,99.55
2022-09-07T01:58:38.456Z,99.33
2022-09-07T02:01:12.518Z,98.76
2022-09-07T02:03:46.306Z,98.99
2022-09-07T02:06:15.685Z,98.88
2022-09-07T02:09:05.559Z,99.15
2022-09-07T02:11:37.683Z,99.09
2022-09-07T02:14:14.675Z,99.13
2022-09-07T02:16:58.428Z,99.07
2022-09-07T02:19:29.569Z,99.49
2022-09-07T02:22:04.209Z,99.38
2022-09-07T02:24:37.799Z,99.32
2022-09-07T02:27:09.793Z,99.53
2022-09-07T02:29:36.661Z,98.96
2022-09-07T02:32:03.838Z,99.50
2022-09-07T02:34:31.827Z,99.19
2022-09-07T02:37:02.156Z,99.29
2022-09-07T02:39:29.368Z,98.62
2022-09-07T02:41:56.175Z,98.92
2022-09-07T02:44:27.913Z,99.15
2022-09-07T02:47:00.439Z,99.32
2022-09-07T02:49:54.150Z,99.18
2022-09-07T02:52:39.086Z,98.68
2022-09-07T02:55:23.355Z,99.09
2022-09-07T02:58:12.436Z,99.34
2022-09-07T03:00:51.701Z,99.13
2022-09-07T03:03:47.458Z,98.86
2022-09-07T03:06:28.351Z,98.59
2022-09-07T03:08:58.414Z,98.90
2022-09-07T03:11:25.907Z,99.08
2022-09-07T03:13:52.786Z,99.42
2022-09-07T03:16:19.624Z,99.18
2022-09-07T03:18:46.487Z,99.26
2022-09-07T03:21:13.232Z,98.84
2022-09-07T03:23:39.920Z,99.18
2022-09-07T03:26:06.814Z,99.04
2022-09-07T03:28:33.568Z,99.14
2022-09-07T03:31:02.142Z,99.37
2022-09-07T03:33:28.966Z,99.33
2022-09-07T03:36:02.484Z,99.55
2022-09-07T03:38:30.728Z,99.89
2022-09-07T03:41:02.142Z,99.79
2022-09-07T03:43:29.824Z,99.42
2022-09-07T03:46:01.368Z,99.22
2022-09-07T03:48:31.531Z,99.15
2022-09-07T03:51:09.619Z,99.04
2022-09-07T03:53:39.285Z,99.33
2022-09-07T03:56:09.038Z,99.65
2022-09-07T03:58:36.414Z,99.10
2022-09-07T04:01:11.318Z,99.16
2022-09-07T04:03:39.598Z,99.17
2022-09-07T04:06:06.451Z,99.03
2022-09-07T04:08:34.791Z,99.02
2022-09-07T04:11:04.071Z,99.19
2022-09-07T04:13:31.884Z,99.21
2022-09-07T04:15:58.563Z,99.34
2022-09-07T04:18:25.686Z,99.16
2022-09-07T04:20:52.442Z,99.23
2022-09-07T04:23:19.587Z,99.10
2022-09-07T04:25:50.587Z,99.25
2022-09-07T04:28:18.696Z,99.20
2022-09-07T04:30:45.972Z,99.09
2022-09-07T04:33:13.727Z,99.73
2022-09-07T04:35:41.883Z,99.83
2022-09-07T04:38:14.289Z,99.56
2022-09-07T04:40:41.492Z,99.67
2022-09-07T04:43:09.612Z,99.89
2022-09-07T04:45:37.405Z,99.98
2022-09-07T04:48:04.939Z,99.80
2022-09-07T04:50:31.975Z,99.65
2022-09-07T04:52:58.648Z,99.88
2022-09-07T04:55:25.405Z,99.78
2022-09-07T04:57:52.112Z,99.74
2022-09-07T05:00:19.575Z,99.62
2022-09-07T05:02:46.374Z,99.65
2022-09-07T05:05:13.361Z,99.46
2022-09-07T05:07:40.121Z,99.64
2022-09-07T05:10:07.114Z,99.57
2022-09-07T05:12:33.816Z,99.49
2022-09-07T05:15:01.649Z,99.61
2022-09-07T05:17:31.042Z,99.45
2022-09-07T05:19:58.572Z,99.55
2022-09-07T05:22:25.453Z,99.26
2022-09-07T05:24:52.193Z,99.09
2022-09-07T05:27:19.163Z,99.58
2022-09-07T05:30:03.842Z,99.31
2022-09-07T05:32:32.268Z,99.17
2022-09-07T05:34:58.934Z,99.30
2022-09-07T05:37:25.844Z,99.27
2022-09-07T05:39:56.890Z,99.59
2022-09-07T05:42:23.904Z,98.77
2022-09-07T05:44:50.608Z,98.81
2022-09-07T05:47:17.337Z,98.59
2022-09-07T05:49:44.085Z,98.53
2022-09-07T05:52:10.889Z,98.79
2022-09-07T05:54:37.606Z,98.80
2022-09-07T05:57:04.697Z,98.68
2022-09-07T05:59:31.429Z,98.86
2022-09-07T06:01:58.332Z,99.03
2022-09-07T06:04:25.096Z,99.08
2022-09-07T06:07:20.123Z,98.76
2022-09-07T06:12:25.893Z,98.92
2022-09-07T06:14:52.602Z,98.95
2022-09-07T06:17:19.722Z,98.92
2022-09-07T06:19:46.473Z,99.13
2022-09-07T06:22:13.380Z,99.02
2022-09-07T06:24:40.132Z,99.13
2022-09-07T06:27:06.891Z,98.72
2022-09-07T06:29:33.540Z,98.84
2022-09-07T06:34:47.016Z,98.72
2022-09-07T06:37:14.087Z,98.92
2022-09-07T06:39:40.903Z,99.03
2022-09-07T06:42:07.605Z,98.69
2022-09-07T06:44:41.804Z,98.09
2022-09-07T06:47:08.545Z,98.33
2022-09-07T06:49:35.266Z,97.82
2022-09-07T06:52:02.225Z,98.10
2022-09-07T06:57:16.255Z,98.41
2022-09-07T06:59:42.940Z,98.65
2022-09-07T07:02:11.543Z,98.44
2022-09-07T07:04:41.143Z,98.97
2022-09-07T07:07:13.695Z,98.71
2022-09-07T07:09:41.643Z,98.35
2022-09-07T07:12:09.542Z,98.55
2022-09-07T07:14:39.734Z,98.59
2022-09-07T07:17:09.706Z,98.37
2022-09-07T07:19:36.449Z,98.57
2022-09-07T07:24:50.126Z,98.27
2022-09-07T07:27:17.629Z,98.53
2022-09-07T07:29:45.328Z,98.76
2022-09-07T07:32:12.010Z,98.31
2022-09-07T07:34:38.790Z,98.63
2022-09-07T07:37:05.473Z,98.23
2022-09-07T07:42:18.843Z,98.75
2022-09-07T07:44:45.624Z,98.45
2022-09-07T07:47:12.434Z,98.29
2022-09-07T07:49:39.060Z,98.80
2022-09-07T07:54:53.734Z,99.02
2022-09-07T07:57:20.476Z,98.86
2022-09-07T07:59:47.134Z,98.82
2022-09-07T08:02:16.296Z,98.80
2022-09-07T08:04:43.402Z,98.94
2022-09-07T08:07:12.081Z,98.71
2022-09-07T08:09:43.785Z,98.95
2022-09-07T08:12:16.764Z,98.83
2022-09-07T08:14:43.932Z,98.74
2022-09-07T08:17:13.207Z,98.80
2022-09-07T08:19:40.354Z,98.78
2022-09-07T08:22:08.810Z,98.96
2022-09-07T08:24:35.584Z,99.01
2022-09-07T08:27:02.625Z,98.99
2022-09-07T08:29:33.564Z,98.45
2022-09-07T08:32:02.617Z,97.59
2022-09-07T08:34:29.384Z,97.39
2022-09-07T08:36:56.085Z,97.00
2022-09-07T08:39:22.759Z,95.57
2022-09-07T08:41:55.534Z,96.12
2022-09-07T08:44:27.298Z,96.04
2022-09-07T08:47:08.810Z,96.13
2022-09-07T08:49:57.293Z,95.49
2022-09-07T08:52:34.074Z,96.20
2022-09-07T08:55:14.372Z,96.24
2022-09-07T08:57:47.807Z,95.62
2022-09-07T09:00:17.720Z,95.50
2022-09-07T09:02:45.639Z,95.97
2022-09-07T09:05:53.488Z,95.82
2022-09-07T09:08:31.997Z,96.17
2022-09-07T09:11:01.597Z,95.02
2022-09-07T09:13:46.532Z,96.54
2022-09-07T09:16:37.986Z,95.58
2022-09-07T09:19:16.832Z,96.12
2022-09-07T09:21:43.744Z,95.82
2022-09-07T09:24:21.846Z,96.48
2022-09-07T09:26:56.632Z,96.09
2022-09-07T09:29:23.996Z,94.86
2022-09-07T09:31:50.853Z,95.65
2022-09-07T09:34:23.634Z,95.97
2022-09-07T09:36:56.590Z,95.78
2022-09-07T09:39:33.503Z,95.31
2022-09-07T09:42:24.349Z,93.70
2022-09-07T09:44:52.539Z,93.61
2022-09-07T09:47:30.184Z,92.76
2022-09-07T09:52:29.131Z,92.11
2022-09-07T09:53:04.499Z,91.69
2022-09-07T09:55:36.100Z,92.55
2022-09-07T10:01:25.279Z,89.59
2022-09-07T10:06:20.812Z,91.10
2022-09-07T10:09:05.370Z,92.94
2022-09-07T10:14:44.234Z,92.36
2022-09-07T10:17:21.802Z,93.40
2022-09-07T10:19:49.647Z,93.96
2022-09-07T10:22:33.523Z,94.93
2022-09-07T10:25:01.359Z,95.00
2022-09-07T10:27:37.328Z,94.93
2022-09-07T10:30:15.262Z,94.90
2022-09-07T10:32:48.823Z,94.81
2022-09-07T10:35:26.005Z,94.95
2022-09-07T10:38:11.546Z,95.31
2022-09-07T10:40:44.664Z,95.10
2022-09-07T10:43:23.784Z,94.59
2022-09-07T10:46:12.362Z,94.96
2022-09-07T10:49:03.821Z,94.29
2022-09-07T10:51:43.928Z,94.42
2022-09-07T10:54:30.514Z,93.80
2022-09-07T10:57:17.029Z,93.66
2022-09-07T11:00:11.109Z,93.20
2022-09-07T11:05:54.845Z,93.23
2022-09-07T11:08:21.483Z,93.35
2022-09-07T11:10:48.084Z,92.72
2022-09-07T11:13:22.344Z,92.48
2022-09-07T11:15:54.647Z,92.17
2022-09-07T11:18:30.633Z,91.70
2022-09-07T11:21:01.919Z,91.70
2022-09-07T11:23:52.349Z,91.69
2022-09-07T11:26:51.802Z,91.14
2022-09-07T11:29:29.468Z,90.21
2022-09-07T11:32:09.762Z,90.75
2022-09-07T11:34:39.243Z,90.48
2022-09-07T11:37:34.931Z,90.05
2022-09-07T11:40:41.907Z,89.85
2022-09-07T11:43:24.066Z,89.98
2022-09-07T11:46:12.593Z,89.24
2022-09-07T11:48:49.143Z,88.12
2022-09-07T11:51:31.255Z,88.50
2022-09-07T11:54:06.637Z,88.02
2022-09-07T11:56:38.371Z,87.56
2022-09-07T11:59:18.230Z,87.04
2022-09-07T12:02:02.080Z,86.52
2022-09-07T12:04:56.560Z,87.40
2022-09-07T12:07:47.177Z,86.92
2022-09-07T12:10:31.750Z,87.74
2022-09-07T12:13:22.942Z,88.59
2022-09-07T12:15:58.034Z,88.44
2022-09-07T12:18:46.672Z,88.47
2022-09-07T12:21:42.862Z,88.52
2022-09-07T12:24:40.961Z,88.09
2022-09-07T12:27:19.883Z,88.51
2022-09-07T12:30:11.248Z,88.84
2022-09-07T12:32:55.399Z,88.36
2022-09-07T12:35:28.800Z,87.77
2022-09-07T12:37:56.428Z,87.79
2022-09-07T12:40:29.159Z,86.99
2022-09-07T12:43:13.954Z,87.07
2022-09-07T12:45:40.626Z,87.59
2022-09-07T12:48:16.358Z,88.54
2022-09-07T12:50:55.189Z,88.78
2022-09-07T12:53:40.602Z,89.03
2022-09-07T12:56:44.965Z,89.42
2022-09-07T12:59:36.583Z,88.76
2022-09-07T13:02:24.852Z,89.03
2022-09-07T13:05:33.515Z,88.45
2022-09-07T13:08:09.591Z,88.88
2022-09-07T13:10:39.560Z,88.65
2022-09-07T13:14:01.712Z,88.15
2022-09-07T13:16:06.143Z,88.30
2022-09-07T13:18:35.958Z,87.94
2022-09-07T13:21:08.939Z,88.40
2022-09-07T13:23:40.456Z,88.09
2022-09-07T13:26:10.706Z,88.12
2022-09-07T13:29:00.898Z,88.63
2022-09-07T13:31:33.612Z,88.89
2022-09-07T13:34:00.589Z,88.28
2022-09-07T13:36:47.675Z,88.70
2022-09-07T13:39:18.745Z,87.57
2022-09-07T13:41:52.331Z,88.13
2022-09-07T13:44:26.920Z,88.52
2022-09-07T13:47:18.163Z,87.99
2022-09-07T13:50:15.555Z,87.70
2022-09-07T13:52:58.552Z,88.04
2022-09-07T13:55:31.051Z,87.77
2022-09-07T13:58:17.943Z,88.42
2022-09-07T14:01:00.913Z,88.17
2022-09-07T14:03:33.949Z,87.59
2022-09-07T14:06:26.873Z,87.50
2022-09-07T14:08:56.348Z,87.00
2022-09-07T14:11:47.921Z,87.62
2022-09-07T14:14:32.838Z,87.26
2022-09-07T14:16:59.619Z,86.93
2022-09-07T14:19:41.588Z,87.55
2022-09-07T14:22:11.335Z,87.12
2022-09-07T14:24:55.912Z,87.01
2022-09-07T14:27:24.074Z,87.71
2022-09-07T14:29:51.778Z,86.63
2022-09-07T14:32:24.077Z,86.29
2022-09-07T14:34:51.477Z,85.89
2022-09-07T14:37:21.227Z,86.59
2022-09-07T14:39:50.115Z,86.69
2022-09-07T14:42:22.886Z,86.96
2022-09-07T14:44:50.253Z,87.94
2022-09-07T14:47:30.847Z,87.12
2022-09-07T14:50:06.086Z,87.47
2022-09-07T14:52:43.369Z,87.24
2022-09-07T14:55:35.190Z,87.53
2022-09-07T14:58:08.894Z,87.04
2022-09-07T15:00:35.912Z,87.48
2022-09-07T15:03:25.512Z,87.72
2022-09-07T15:05:52.272Z,87.39
2022-09-07T15:08:40.810Z,88.00
2022-09-07T15:14:02.548Z,88.21
2022-09-07T15:16:32.335Z,87.18
2022-09-07T15:19:17.104Z,87.47
2022-09-07T15:21:44.908Z,88.06
2022-09-07T15:24:12.086Z,87.95
2022-09-07T15:29:28.697Z,88.51
2022-09-07T15:32:03.515Z,88.76
2022-09-07T15:34:32.367Z,89.10
2022-09-07T15:37:00.849Z,89.50
2022-09-07T15:39:29.975Z,89.41
2022-09-07T15:41:58.155Z,89.46
2022-09-07T15:44:28.493Z,89.48
2022-09-07T15:49:49.155Z,88.74
2022-09-07T15:52:17.828Z,89.42
2022-09-07T15:54:44.761Z,89.49
2022-09-07T15:59:58.775Z,88.83
2022-09-07T16:05:12.717Z,89.84
2022-09-07T16:10:31.142Z,89.36
2022-09-07T16:13:02.835Z,90.30
2022-09-07T16:15:45.199Z,90.44
2022-09-07T16:18:16.449Z,89.30
2022-09-07T16:20:43.805Z,89.08
2022-09-07T16:23:13.919Z,89.96
2022-09-07T16:25:42.366Z,90.53
2022-09-07T16:28:09.767Z,91.43
2022-09-07T16:30:39.488Z,90.12
2022-09-07T16:33:06.552Z,90.74
2022-09-07T16:35:33.302Z,90.10
2022-09-07T16:40:47.023Z,90.42
2022-09-07T16:43:13.690Z,90.78
2022-09-07T16:48:36.550Z,90.62
2022-09-07T16:51:05.025Z,90.98
2022-09-07T16:53:34.310Z,90.75
2022-09-07T16:56:09.577Z,91.02
2022-09-07T16:58:38.854Z,90.93
2022-09-07T17:01:07.572Z,90.66
2022-09-07T17:03:36.213Z,91.72
2022-09-07T17:06:04.807Z,91.81
2022-09-07T17:08:33.199Z,92.82
2022-09-07T17:11:01.908Z,92.46
2022-09-07T17:13:30.328Z,92.54
2022-09-07T17:16:12.046Z,92.91
2022-09-07T17:22:16.289Z,92.86
2022-09-07T17:30:02.711Z,93.52
2022-09-07T17:36:30.578Z,93.72
2022-09-07T17:39:16.283Z,92.84
2022-09-07T17:41:44.117Z,91.92
2022-09-07T17:44:11.321Z,93.36
2022-09-07T17:46:38.113Z,93.03
2022-09-07T17:49:08.043Z,92.85
2022-09-07T17:51:35.874Z,93.55
2022-09-07T17:54:09.704Z,93.09
2022-09-07T17:56:37.438Z,93.78
2022-09-07T18:01:53.775Z,94.61
2022-09-07T18:04:21.206Z,93.34
2022-09-07T18:06:48.130Z,94.18
2022-09-07T18:09:15.831Z,94.37
2022-09-07T18:11:45.983Z,94.48
2022-09-07T18:14:14.649Z,94.66
2022-09-07T18:16:43.449Z,94.78
2022-09-07T18:19:11.278Z,94.66
2022-09-07T18:21:41.200Z,95.20
2022-09-07T18:24:22.934Z,94.38
2022-09-07T18:26:52.641Z,95.05
2022-09-07T18:29:32.849Z,95.62
2022-09-07T18:32:08.051Z,95.54
2022-09-07T18:34:36.623Z,95.22
2022-09-07T18:37:03.529Z,95.31
2022-09-07T18:39:30.315Z,95.43
2022-09-07T18:41:57.224Z,95.57
2022-09-07T18:47:21.479Z,95.83
2022-09-07T18:49:50.354Z,95.03
2022-09-07T18:55:07.065Z,95.50
2022-09-07T18:57:34.287Z,95.85
2022-09-07T19:00:01.171Z,95.87
2022-09-07T19:02:27.965Z,95.92
2022-09-07T19:07:41.431Z,95.82
2022-09-07T19:10:08.393Z,96.05
2022-09-07T19:12:35.093Z,96.66
2022-09-07T19:15:01.772Z,96.23
2022-09-07T19:17:28.550Z,96.41
2022-09-07T19:19:55.266Z,95.32
2022-09-07T19:22:22.010Z,94.10
2022-09-07T19:24:50.255Z,95.45
2022-09-07T19:27:17.006Z,95.59
2022-09-07T19:29:43.788Z,96.06
2022-09-07T19:32:13.048Z,95.47
2022-09-07T19:34:42.154Z,96.47
2022-09-07T19:37:11.195Z,96.98
2022-09-07T19:39:38.526Z,95.54
2022-09-07T19:42:06.396Z,95.81
2022-09-07T19:44:33.762Z,96.01
2022-09-07T19:47:01.012Z,95.45
2022-09-07T19:49:28.734Z,96.22
2022-09-07T19:51:55.516Z,96.36
2022-09-07T19:54:22.270Z,96.72
2022-09-07T19:56:49.181Z,96.98
2022-09-07T19:59:16.077Z,96.54
2022-09-07T20:01:46.427Z,97.10
2022-09-07T20:04:19.501Z,96.48
2022-09-07T20:06:49.980Z,96.62
2022-09-07T20:09:18.546Z,96.27
2022-09-07T20:11:47.395Z,96.95
2022-09-07T20:14:15.674Z,97.08
2022-09-07T20:16:42.445Z,96.98
2022-09-07T20:19:11.585Z,96.73
2022-09-07T20:21:38.245Z,97.12
2022-09-07T20:24:05.100Z,96.46
2022-09-07T20:26:32.541Z,96.51
2022-09-07T20:29:16.851Z,97.03
2022-09-07T20:31:47.302Z,96.76
2022-09-07T20:34:14.409Z,96.72
2022-09-07T20:36:41.513Z,96.85
2022-09-07T20:39:08.291Z,96.91
2022-09-07T20:41:35.428Z,97.22
2022-09-07T20:44:03.992Z,96.71
2022-09-07T20:46:31.104Z,96.21
2022-09-07T20:48:58.325Z,96.67
2022-09-07T20:51:25.690Z,97.27
2022-09-07T20:53:52.536Z,96.39
2022-09-07T20:56:27.650Z,96.86
2022-09-07T20:59:01.884Z,96.58
2022-09-07T21:01:30.869Z,96.72
2022-09-07T21:03:59.192Z,97.02
2022-09-07T21:06:27.574Z,96.28
2022-09-07T21:08:54.854Z,96.88
2022-09-07T21:11:33.819Z,97.25
2022-09-07T21:14:06.582Z,97.04
2022-09-07T21:16:34.697Z,97.33
2022-09-07T21:19:02.775Z,97.33
2022-09-07T21:21:38.391Z,97.37
2022-09-07T21:24:06.826Z,97.25
2022-09-07T21:26:33.571Z,97.05
2022-09-07T21:29:02.499Z,96.99
2022-09-07T21:31:31.144Z,97.54
2022-09-07T21:34:00.371Z,97.54
2022-09-07T21:36:27.801Z,97.24
2022-09-07T21:38:55.048Z,96.78
2022-09-07T21:41:23.816Z,96.87
2022-09-07T21:43:55.915Z,97.50
2022-09-07T21:46:23.141Z,97.64
2022-09-07T21:48:49.972Z,97.92
2022-09-07T21:51:17.057Z,97.63
2022-09-07T21:53:44.267Z,97.82
2022-09-07T21:56:13.300Z,97.57
2022-09-07T21:58:40.557Z,97.84
2022-09-07T22:01:11.269Z,97.29
2022-09-07T22:03:39.648Z,97.97
2022-09-07T22:06:07.719Z,97.83
2022-09-07T22:08:35.960Z,97.65
2022-09-07T22:11:08.393Z,98.05
2022-09-07T22:13:35.776Z,98.22
2022-09-07T22:16:03.606Z,98.24
2022-09-07T22:18:31.088Z,98.55
2022-09-07T22:21:18.285Z,97.56
2022-09-07T22:23:51.983Z,98.28
2022-09-07T22:26:24.561Z,98.41
2022-09-07T22:28:51.712Z,98.05
2022-09-07T22:31:21.576Z,98.46
2022-09-07T22:33:52.578Z,98.22
2022-09-07T22:36:37.134Z,98.50
2022-09-07T22:39:07.193Z,98.69
2022-09-07T22:41:38.441Z,98.44
2022-09-07T22:44:07.008Z,97.71
2022-09-07T22:46:39.523Z,98.82
2022-09-07T22:49:07.749Z,98.48
2022-09-07T22:51:35.057Z,98.35
2022-09-07T22:54:01.812Z,98.58
2022-09-07T22:56:31.400Z,98.79
2022-09-07T22:59:00.574Z,98.48
2022-09-07T23:01:29.574Z,98.43
2022-09-07T23:03:56.979Z,98.50
2022-09-07T23:06:28.647Z,98.92
2022-09-07T23:08:57.088Z,98.51
2022-09-07T23:11:24.694Z,98.83
2022-09-07T23:13:56.172Z,99.26
2022-09-07T23:16:23.527Z,98.85
2022-09-07T23:18:50.943Z,99.10
2022-09-07T23:21:18.051Z,99.21
2022-09-07T23:23:50.404Z,98.93
2022-09-07T23:26:17.251Z,99.19
2022-09-07T23:28:43.929Z,99.39
2022-09-07T23:31:10.893Z,99.48
2022-09-07T23:33:38.097Z,99.34
2022-09-07T23:36:06.927Z,99.65
2022-09-07T23:38:33.900Z,98.52
2022-09-07T23:41:01.037Z,99.28
2022-09-07T23:43:28.943Z,99.17
2022-09-07T23:45:56.458Z,98.98
2022-09-07T23:48:24.738Z,99.19
2022-09-07T23:50:53.025Z,99.02
2022-09-07T23:53:21.161Z,99.09
2022-09-07T23:55:53.124Z,99.26
2022-09-07T23:58:22.848Z,98.92
